Time;durP1;ratioP1;P1;durP2;ratioP2;P2;SDS_P1;SDS_P2;PMS_P1;PMS_P2;Temp;Humidity;BMP_temperature;BMP_pressure;BME280_temperature;BME280_humidity;BME280_pressure;Samples;Min_cycle;Max_cycle;Signal;HPM_P1;HPM_P2
2022/01/09 00:00:20;;;;;;;0.30;0.30;;;7.20;99.90;;;;;;4949765;29;20444;-80
2022/01/09 00:02:46;;;;;;;0.08;0.08;;;7.10;99.90;;;;;;4952704;29;20062;-80
2022/01/09 00:05:12;;;;;;;0.10;0.10;;;7.00;99.90;;;;;;4951672;28;20418;-79
2022/01/09 00:07:38;;;;;;;0.10;0.10;;;7.00;99.90;;;;;;4950816;29;20039;-80
2022/01/09 00:10:06;;;;;;;0.00;0.00;;;6.90;99.90;;;;;;4951812;28;20046;-80
2022/01/09 00:12:32;;;;;;;0.10;0.10;;;6.90;99.90;;;;;;4950606;29;20521;-80
2022/01/09 00:14:58;;;;;;;0.08;0.08;;;6.90;99.90;;;;;;4951930;29;20068;-80
2022/01/09 00:17:23;;;;;;;0.10;0.10;;;7.00;99.90;;;;;;4950770;29;20039;-79
2022/01/09 00:19:49;;;;;;;0.10;0.10;;;7.00;99.90;;;;;;4952463;29;20030;-80
2022/01/09 00:22:18;;;;;;;0.10;0.10;;;7.10;99.90;;;;;;4950459;29;20098;-80
2022/01/09 00:24:45;;;;;;;0.10;0.10;;;7.00;99.90;;;;;;4952495;29;20035;-81
2022/01/09 00:27:10;;;;;;;0.10;0.10;;;7.00;99.90;;;;;;4953063;28;20042;-80
2022/01/09 00:29:36;;;;;;;0.00;0.00;;;6.90;99.90;;;;;;4951478;29;20035;-81
2022/01/09 00:32:02;;;;;;;0.75;0.10;;;6.80;99.90;;;;;;4952434;28;20058;-81
2022/01/09 00:34:28;;;;;;;0.10;0.10;;;6.70;99.90;;;;;;4954592;29;20102;-81
2022/01/09 00:36:54;;;;;;;0.00;0.00;;;6.70;99.90;;;;;;4953511;29;20126;-80
2022/01/09 00:39:19;;;;;;;0.10;0.10;;;6.60;99.90;;;;;;4950104;29;20031;-80
2022/01/09 00:41:45;;;;;;;0.28;0.28;;;6.50;99.90;;;;;;4949412;29;20042;-79
2022/01/09 00:44:11;;;;;;;0.32;0.20;;;6.50;99.90;;;;;;4950902;29;20062;-79
2022/01/09 00:46:36;;;;;;;1.48;0.30;;;6.50;99.90;;;;;;4949485;29;20396;-80
2022/01/09 00:49:03;;;;;;;0.10;0.10;;;6.50;99.90;;;;;;4950427;29;20199;-80
2022/01/09 00:51:29;;;;;;;0.10;0.10;;;6.40;99.90;;;;;;4953215;28;20082;-80
2022/01/09 00:53:55;;;;;;;1.13;0.20;;;6.60;99.90;;;;;;4954748;29;20504;-81
2022/01/09 00:56:21;;;;;;;0.35;0.15;;;6.50;99.90;;;;;;4951246;29;20027;-80
2022/01/09 00:58:46;;;;;;;0.10;0.10;;;6.40;99.90;;;;;;4934135;29;20119;-79
2022/01/09 01:01:12;;;;;;;0.52;0.20;;;6.20;99.90;;;;;;4954025;29;20123;-81
2022/01/09 01:03:38;;;;;;;0.10;0.10;;;6.00;99.90;;;;;;4952729;29;20038;-82
2022/01/09 01:06:04;;;;;;;1.17;0.10;;;5.90;99.90;;;;;;4951265;29;20023;-79
2022/01/09 01:08:30;;;;;;;0.22;0.13;;;5.90;99.90;;;;;;4944388;29;20023;-81
2022/01/09 01:10:56;;;;;;;0.10;0.10;;;5.80;99.90;;;;;;4943346;29;20035;-82
2022/01/09 01:13:21;;;;;;;0.30;0.10;;;5.80;99.90;;;;;;4939680;29;20446;-79
2022/01/09 01:15:47;;;;;;;0.45;0.38;;;5.60;99.90;;;;;;4933525;29;20023;-80
2022/01/09 01:18:13;;;;;;;0.10;0.10;;;5.40;99.90;;;;;;4933703;29;20134;-79
2022/01/09 01:20:40;;;;;;;3.15;0.15;;;5.20;99.90;;;;;;4934263;29;20488;-80
2022/01/09 01:23:06;;;;;;;0.10;0.10;;;5.10;99.90;;;;;;4950858;29;20391;-79
2022/01/09 01:25:32;;;;;;;0.10;0.10;;;5.00;99.90;;;;;;4933189;29;20042;-79
2022/01/09 01:27:58;;;;;;;0.15;0.15;;;5.00;99.90;;;;;;4933526;29;20565;-79
2022/01/09 01:30:24;;;;;;;0.10;0.10;;;4.90;99.90;;;;;;4932649;29;20035;-79
2022/01/09 01:32:49;;;;;;;0.10;0.10;;;4.80;99.90;;;;;;4950414;29;20035;-79
2022/01/09 01:35:15;;;;;;;0.22;0.10;;;4.80;99.90;;;;;;4933032;29;20046;-79
2022/01/09 01:37:42;;;;;;;0.10;0.10;;;4.70;99.90;;;;;;4933350;29;20505;-80
2022/01/09 01:40:15;;;;;;;0.10;0.10;;;4.80;99.90;;;;;;4933003;29;20023;-79
2022/01/09 01:42:42;;;;;;;0.10;0.10;;;4.90;99.90;;;;;;4932563;29;20039;-79
2022/01/09 01:45:09;;;;;;;5.97;0.25;;;4.80;99.90;;;;;;4950535;28;20551;-80
2022/01/09 01:47:35;;;;;;;0.17;0.17;;;4.90;99.90;;;;;;4950845;29;20616;-79
2022/01/09 01:50:01;;;;;;;0.10;0.10;;;5.00;99.90;;;;;;4933702;29;20085;-79
2022/01/09 01:52:28;;;;;;;1.65;0.17;;;4.90;99.90;;;;;;4932805;29;20483;-79
2022/01/09 01:54:55;;;;;;;1.20;0.20;;;4.90;99.90;;;;;;4932678;29;20037;-79
2022/01/09 01:57:21;;;;;;;0.20;0.10;;;4.80;99.90;;;;;;4949693;29;20027;-79
2022/01/09 01:59:46;;;;;;;0.10;0.10;;;4.70;99.90;;;;;;4964888;28;20497;-79
2022/01/09 02:02:13;;;;;;;0.20;0.20;;;4.70;99.90;;;;;;4950242;29;20287;-79
2022/01/09 02:04:40;;;;;;;1.25;0.17;;;4.60;99.90;;;;;;4949204;29;20066;-79
2022/01/09 02:07:06;;;;;;;0.20;0.20;;;4.50;99.90;;;;;;4964992;28;20028;-79
2022/01/09 02:09:33;;;;;;;0.20;0.20;;;4.50;99.90;;;;;;4948996;29;20031;-80
2022/01/09 02:11:59;;;;;;;0.13;0.13;;;4.40;99.90;;;;;;4949210;29;20551;-78
2022/01/09 02:14:25;;;;;;;0.13;0.13;;;4.30;99.90;;;;;;4948715;29;20435;-78
2022/01/09 02:16:51;;;;;;;0.10;0.10;;;4.30;99.90;;;;;;4947968;29;20178;-78
2022/01/09 02:19:20;;;;;;;0.30;0.10;;;4.30;99.90;;;;;;4949589;29;20078;-79
2022/01/09 02:21:46;;;;;;;0.40;0.10;;;;;;;;;;4948585;29;20035;-78
2022/01/09 02:24:12;;;;;;;0.65;0.63;;;4.30;99.90;;;;;;4948646;29;20484;-79
2022/01/09 02:26:38;;;;;;;0.15;0.10;;;4.20;99.90;;;;;;4951182;28;20039;-80
2022/01/09 02:29:05;;;;;;;4.28;0.32;;;4.20;99.90;;;;;;4950518;28;20042;-80
2022/01/09 02:31:32;;;;;;;0.10;0.10;;;4.20;99.90;;;;;;4949914;29;20031;-80
2022/01/09 02:33:58;;;;;;;0.20;0.10;;;4.10;99.90;;;;;;4951119;28;20026;-80
2022/01/09 02:36:23;;;;;;;0.10;0.10;;;4.10;99.90;;;;;;4952462;29;20019;-80
2022/01/09 02:38:49;;;;;;;0.10;0.10;;;3.90;99.90;;;;;;4950009;29;20038;-79
2022/01/09 02:41:15;;;;;;;0.17;0.17;;;3.80;99.90;;;;;;4950142;29;20116;-79
2022/01/09 02:43:41;;;;;;;0.10;0.10;;;3.80;99.90;;;;;;4951502;29;20059;-80
2022/01/09 02:46:27;;;;;;;0.10;0.10;;;3.70;99.90;;;;;;4951369;29;20476;-80
2022/01/09 02:48:53;;;;;;;1.23;0.20;;;3.60;99.90;;;;;;4950729;28;20148;-80
2022/01/09 02:51:19;;;;;;;0.10;0.10;;;3.60;99.90;;;;;;4950653;28;20472;-82
2022/01/09 02:53:48;;;;;;;0.10;0.10;;;3.70;99.90;;;;;;4949765;29;20034;-80
2022/01/09 02:56:15;;;;;;;2.88;0.20;;;3.70;99.90;;;;;;4951139;28;20027;-80
2022/01/09 02:58:41;;;;;;;0.15;0.15;;;3.60;99.90;;;;;;4955831;29;20070;-79
2022/01/09 03:01:09;;;;;;;0.10;0.10;;;3.60;99.90;;;;;;4937243;29;20514;-80
2022/01/09 03:03:36;;;;;;;0.10;0.10;;;3.60;99.90;;;;;;4953862;29;20030;-80
2022/01/09 03:06:02;;;;;;;0.00;0.00;;;3.50;99.90;;;;;;4955510;29;20019;-79
2022/01/09 03:08:28;;;;;;;0.10;0.10;;;3.50;99.90;;;;;;4954650;29;20058;-79
2022/01/09 03:10:54;;;;;;;0.10;0.10;;;3.50;99.90;;;;;;4954244;29;20051;-79
2022/01/09 03:13:20;;;;;;;1.05;0.20;;;3.40;99.90;;;;;;4953673;29;20065;-82
2022/01/09 03:15:46;;;;;;;0.10;0.10;;;3.40;99.90;;;;;;4953681;29;20027;-80
2022/01/09 03:18:12;;;;;;;0.17;0.17;;;3.30;99.90;;;;;;4952646;29;20058;-81
2022/01/09 03:20:38;;;;;;;0.47;0.10;;;3.30;99.90;;;;;;4935319;29;20019;-79
2022/01/09 03:23:04;;;;;;;2.85;0.20;;;3.30;99.90;;;;;;4935686;29;20121;-80
2022/01/09 03:25:30;;;;;;;0.15;0.10;;;3.20;99.90;;;;;;4935111;29;20042;-76
2022/01/09 03:27:57;;;;;;;4.28;0.73;;;3.30;99.90;;;;;;4951708;29;20031;-77
2022/01/09 03:30:25;;;;;;;0.80;0.20;;;3.10;99.90;;;;;;4951607;29;20065;-76
2022/01/09 03:32:53;;;;;;;0.20;0.20;;;3.00;99.90;;;;;;4952072;29;20438;-77
2022/01/09 03:35:22;;;;;;;1.42;0.40;;;3.00;99.90;;;;;;4952820;29;20487;-77
2022/01/09 03:37:49;;;;;;;0.77;0.38;;;3.10;99.90;;;;;;4952335;29;20031;-77
2022/01/09 03:40:19;;;;;;;0.32;0.10;;;3.20;99.90;;;;;;4953721;29;20058;-77
2022/01/09 03:42:48;;;;;;;0.68;0.15;;;3.20;99.90;;;;;;4953440;29;20043;-77
2022/01/09 03:45:15;;;;;;;0.25;0.20;;;3.30;99.90;;;;;;4952765;29;20086;-78
2022/01/09 03:47:41;;;;;;;1.05;0.77;;;3.30;99.90;;;;;;4953690;29;20069;-76
2022/01/09 03:50:10;;;;;;;2.60;0.28;;;3.40;99.90;;;;;;4952896;29;20511;-77
2022/01/09 03:52:38;;;;;;;0.20;0.20;;;3.40;99.90;;;;;;4953411;29;20260;-77
2022/01/09 03:55:06;;;;;;;1.25;0.30;;;3.40;99.90;;;;;;4935286;29;20035;-76
2022/01/09 03:57:32;;;;;;;1.80;0.20;;;3.30;99.90;;;;;;4945700;29;20266;-77
2022/01/09 03:59:57;;;;;;;0.38;0.10;;;3.10;99.90;;;;;;4952002;29;20184;-77
2022/01/09 04:02:23;;;;;;;0.32;0.20;;;2.70;99.90;;;;;;4951468;29;20066;-77
2022/01/09 04:04:48;;;;;;;1.38;0.20;;;2.50;99.90;;;;;;4952982;29;20236;-77
2022/01/09 04:07:16;;;;;;;0.40;0.35;;;2.20;99.90;;;;;;4950370;28;20023;-81
2022/01/09 04:09:44;;;;;;;0.10;0.10;;;2.30;99.90;;;;;;4950911;29;20502;-78
2022/01/09 04:12:17;;;;;;;1.27;0.25;;;2.00;99.90;;;;;;4951371;28;20027;-77
2022/01/09 04:14:45;;;;;;;0.25;0.10;;;2.00;99.90;;;;;;4951520;28;20023;-78
2022/01/09 04:17:19;;;;;;;1.55;0.30;;;2.10;99.90;;;;;;4953047;28;20034;-78
2022/01/09 04:19:45;;;;;;;0.75;0.50;;;2.10;99.90;;;;;;4952357;28;20030;-78
2022/01/09 04:22:11;;;;;;;0.65;0.35;;;2.30;99.90;;;;;;4967107;28;20035;-77
2022/01/09 04:24:37;;;;;;;2.25;0.40;;;2.50;99.90;;;;;;4950633;29;20550;-77
2022/01/09 04:27:02;;;;;;;0.30;0.20;;;2.50;99.90;;;;;;4950891;29;20318;-78
2022/01/09 04:29:28;;;;;;;5.18;0.95;;;2.60;99.90;;;;;;4950857;29;20027;-78
2022/01/09 04:31:54;;;;;;;1.17;0.40;;;2.60;99.90;;;;;;4950980;28;20031;-77
2022/01/09 04:34:20;;;;;;;1.17;0.65;;;2.80;99.90;;;;;;4951122;29;20024;-77
2022/01/09 04:36:46;;;;;;;6.72;0.90;;;2.70;99.90;;;;;;4951450;29;20031;-79
2022/01/09 04:39:12;;;;;;;3.60;1.25;;;2.80;99.90;;;;;;4950303;29;20119;-78
2022/01/09 04:41:37;;;;;;;3.22;0.45;;;2.70;99.90;;;;;;4949692;29;20043;-77
2022/01/09 04:44:04;;;;;;;7.85;0.98;;;2.80;99.90;;;;;;4952217;28;20507;-77
2022/01/09 04:46:39;;;;;;;4.90;1.35;;;2.70;99.90;;;;;;4951439;28;20045;-78
2022/01/09 04:49:05;;;;;;;2.53;1.23;;;2.80;99.90;;;;;;4950092;29;20051;-79
2022/01/09 04:51:31;;;;;;;3.17;0.57;;;2.90;99.90;;;;;;4952068;28;20058;-77
2022/01/09 04:53:56;;;;;;;5.20;1.27;;;2.90;99.90;;;;;;4951271;29;20098;-79
2022/01/09 04:56:22;;;;;;;10.27;1.20;;;3.00;99.90;;;;;;4950838;29;20424;-77
2022/01/09 04:58:48;;;;;;;10.63;1.00;;;3.00;99.90;;;;;;4951025;29;20031;-81
2022/01/09 05:01:13;;;;;;;5.18;1.67;;;3.00;99.90;;;;;;4950901;29;20042;-83
2022/01/09 05:03:39;;;;;;;4.15;0.50;;;3.00;99.90;;;;;;4933821;29;20859;-81
2022/01/09 05:06:05;;;;;;;1.77;0.65;;;3.00;99.90;;;;;;4951613;29;20086;-83
2022/01/09 05:08:30;;;;;;;6.70;0.60;;;3.00;99.90;;;;;;4934664;29;20161;-80
2022/01/09 05:10:56;;;;;;;2.03;0.43;;;2.80;99.90;;;;;;4951140;29;20023;-79
2022/01/09 05:13:22;;;;;;;6.13;1.63;;;3.00;99.90;;;;;;4953542;29;20023;-81
2022/01/09 05:15:48;;;;;;;0.47;0.47;;;3.00;99.90;;;;;;4952144;29;20023;-79
2022/01/09 05:18:14;;;;;;;3.70;1.10;;;3.00;99.90;;;;;;4951262;28;20090;-81
2022/01/09 05:20:44;;;;;;;1.80;0.60;;;4.10;99.90;;;;;;4934529;29;20047;-77
2022/01/09 05:23:10;;;;;;;2.28;1.50;;;3.00;99.90;;;;;;4952605;29;20106;-91
2022/01/09 05:25:37;;;;;;;4.05;1.02;;;3.00;99.90;;;;;;4950959;29;20031;-83
2022/01/09 05:28:03;;;;;;;4.03;1.10;;;2.90;99.90;;;;;;4958191;29;20027;-91
2022/01/09 05:30:28;;;;;;;3.00;1.02;;;2.90;99.90;;;;;;4950973;29;20023;-78
2022/01/09 05:32:54;;;;;;;4.13;0.95;;;3.00;99.90;;;;;;4950188;29;20382;-79
2022/01/09 05:35:20;;;;;;;0.88;0.60;;;3.00;99.90;;;;;;4950497;29;20042;-79
2022/01/09 05:37:46;;;;;;;4.70;0.60;;;3.00;99.90;;;;;;4933266;29;20090;-78
2022/01/09 05:40:12;;;;;;;4.55;1.08;;;3.10;99.90;;;;;;4950236;29;20039;-79
2022/01/09 05:42:38;;;;;;;3.20;0.43;;;3.20;99.90;;;;;;4950867;29;20045;-80
2022/01/09 05:45:07;;;;;;;8.10;1.05;;;3.20;99.90;;;;;;4932941;29;20122;-79
2022/01/09 05:47:32;;;;;;;7.78;1.52;;;3.20;99.90;;;;;;4933002;29;20031;-79
2022/01/09 05:49:58;;;;;;;0.45;0.43;;;3.30;99.90;;;;;;4949943;29;20111;-79
2022/01/09 05:52:24;;;;;;;3.60;1.30;;;3.20;99.90;;;;;;4931714;29;20035;-79
2022/01/09 05:54:50;;;;;;;3.70;0.35;;;3.40;99.90;;;;;;4932341;29;20451;-78
2022/01/09 05:57:15;;;;;;;5.28;0.93;;;3.40;99.90;;;;;;4940179;29;20090;-78
2022/01/09 05:59:41;;;;;;;2.78;0.47;;;3.40;99.90;;;;;;4948986;29;20102;-78
2022/01/09 06:02:07;;;;;;;3.88;0.63;;;3.40;99.90;;;;;;4949251;29;20036;-79
2022/01/09 06:04:32;;;;;;;3.10;1.20;;;3.40;99.90;;;;;;4948693;29;20559;-79
2022/01/09 06:06:58;;;;;;;1.17;0.43;;;3.50;99.90;;;;;;4949409;29;20074;-78
2022/01/09 06:09:24;;;;;;;1.85;1.52;;;3.50;99.90;;;;;;4948737;28;20376;-78
2022/01/09 06:11:50;;;;;;;2.60;1.13;;;3.50;99.90;;;;;;4963937;28;20035;-79
2022/01/09 06:14:15;;;;;;;5.15;1.02;;;3.40;99.90;;;;;;4949004;29;20027;-78
2022/01/09 06:16:41;;;;;;;8.05;1.42;;;3.40;99.90;;;;;;4949232;29;20035;-78
2022/01/09 06:19:07;;;;;;;3.83;1.20;;;3.40;99.90;;;;;;4948853;29;20403;-78
2022/01/09 06:21:33;;;;;;;4.78;0.60;;;3.40;99.90;;;;;;4948713;29;20491;-78
2022/01/09 06:23:59;;;;;;;0.45;0.40;;;3.30;99.90;;;;;;4950026;29;20420;-78
2022/01/09 06:26:24;;;;;;;1.23;0.60;;;3.40;99.90;;;;;;4950243;29;20027;-78
2022/01/09 06:28:50;;;;;;;1.67;1.00;;;3.40;99.90;;;;;;4948046;29;20027;-79
2022/01/09 06:31:16;;;;;;;1.25;0.70;;;3.40;99.90;;;;;;4952486;28;20074;-78
2022/01/09 06:33:41;;;;;;;6.93;0.80;;;3.40;99.90;;;;;;4958715;28;20034;-78
2022/01/09 06:36:07;;;;;;;1.52;0.38;;;3.40;99.90;;;;;;4964224;28;20102;-78
2022/01/09 06:38:33;;;;;;;6.10;0.95;;;3.50;99.90;;;;;;4953160;28;20511;-78
2022/01/09 06:40:59;;;;;;;6.10;0.73;;;3.50;99.90;;;;;;4953889;28;20034;-79
2022/01/09 06:43:24;;;;;;;14.07;1.15;;;3.50;99.90;;;;;;4972207;28;20371;-78
2022/01/09 06:45:50;;;;;;;2.28;0.50;;;3.50;99.90;;;;;;4954119;28;20031;-78
2022/01/09 06:48:16;;;;;;;5.25;0.95;;;3.40;99.90;;;;;;4954628;28;20027;-78
2022/01/09 06:50:41;;;;;;;4.13;1.00;;;3.50;99.90;;;;;;4954065;28;20073;-78
2022/01/09 06:53:07;;;;;;;1.10;0.75;;;3.40;99.90;;;;;;4970759;28;20026;-78
2022/01/09 06:55:33;;;;;;;3.47;0.57;;;3.50;99.90;;;;;;4972067;28;20087;-78
2022/01/09 06:57:58;;;;;;;2.85;1.08;;;3.50;99.90;;;;;;4971750;28;20035;-78
2022/01/09 07:00:24;;;;;;;5.93;1.65;;;3.50;99.90;;;;;;4971059;28;20031;-77
2022/01/09 07:02:50;;;;;;;5.47;0.52;;;3.50;99.90;;;;;;4970340;28;20043;-80
2022/01/09 07:05:16;;;;;;;7.93;1.77;;;3.50;99.90;;;;;;4971261;28;20033;-78
2022/01/09 07:07:42;;;;;;;3.30;0.47;;;3.40;99.90;;;;;;4971652;28;20031;-77
2022/01/09 07:10:09;;;;;;;4.75;1.20;;;3.40;99.90;;;;;;4971205;28;20468;-77
2022/01/09 07:12:36;;;;;;;9.73;0.65;;;3.30;99.90;;;;;;4972171;28;20027;-78
2022/01/09 07:15:02;;;;;;;6.05;1.08;;;3.30;99.90;;;;;;4972208;28;20027;-78
2022/01/09 07:17:28;;;;;;;3.92;1.08;;;3.20;99.90;;;;;;4953699;28;20507;-78
2022/01/09 07:19:54;;;;;;;4.55;0.70;;;3.10;99.90;;;;;;4971940;28;20077;-77
2022/01/09 07:22:19;;;;;;;4.35;0.80;;;3.10;99.90;;;;;;4971899;28;20661;-78
2022/01/09 07:24:45;;;;;;;1.08;0.63;;;3.00;99.90;;;;;;4971848;28;20387;-78
2022/01/09 07:27:12;;;;;;;5.07;1.15;;;3.00;99.90;;;;;;4971747;28;20089;-77
2022/01/09 07:29:37;;;;;;;2.30;0.28;;;3.00;99.90;;;;;;4972385;28;20513;-77
2022/01/09 07:32:04;;;;;;;5.38;1.50;;;3.00;99.90;;;;;;4971587;28;20034;-78
2022/01/09 07:34:29;;;;;;;1.88;0.50;;;3.10;99.90;;;;;;4973060;28;20035;-80
2022/01/09 07:36:55;;;;;;;6.38;0.68;;;3.10;99.90;;;;;;4951913;28;20387;-78
2022/01/09 07:39:21;;;;;;;4.38;0.77;;;3.00;99.90;;;;;;4972352;28;20022;-80
2022/01/09 07:41:47;;;;;;;4.18;0.70;;;2.80;99.90;;;;;;4970422;28;20507;-79
2022/01/09 07:44:12;;;;;;;3.15;0.80;;;2.80;99.90;;;;;;4966907;28;20027;-79
2022/01/09 07:46:39;;;;;;;1.42;0.50;;;2.70;99.90;;;;;;4955870;28;20035;-82
2022/01/09 07:49:05;;;;;;;2.72;0.50;;;2.70;99.90;;;;;;4934504;29;20043;-80
2022/01/09 07:51:30;;;;;;;1.48;0.88;;;2.70;99.90;;;;;;4925953;29;20024;-80
2022/01/09 07:53:56;;;;;;;2.22;0.80;;;2.70;99.90;;;;;;4949807;29;20031;-77
2022/01/09 07:56:22;;;;;;;3.58;1.20;;;2.70;99.90;;;;;;4950192;29;20035;-78
2022/01/09 07:58:47;;;;;;;8.32;2.88;;;2.60;99.90;;;;;;4940378;29;20023;-87
2022/01/09 08:01:14;;;;;;;5.18;1.10;;;2.70;99.90;;;;;;4929740;29;20024;-79
2022/01/09 08:03:41;;;;;;;2.00;1.20;;;2.60;99.90;;;;;;4952855;28;20305;-79
2022/01/09 08:06:06;;;;;;;4.07;1.15;;;2.60;99.90;;;;;;4938074;29;20019;-78
2022/01/09 08:08:32;;;;;;;2.92;0.80;;;2.60;99.90;;;;;;4957181;28;20050;-77
2022/01/09 08:10:58;;;;;;;12.70;2.30;;;2.60;99.90;;;;;;4944751;29;20030;-78
2022/01/09 08:13:24;;;;;;;2.72;1.50;;;2.60;99.90;;;;;;4932437;29;20042;-78
2022/01/09 08:15:49;;;;;;;2.92;1.58;;;2.60;99.90;;;;;;4932943;29;20031;-78
2022/01/09 08:18:15;;;;;;;0.50;0.50;;;2.70;99.90;;;;;;4935229;29;20397;-77
2022/01/09 08:20:41;;;;;;;2.00;0.22;;;2.70;99.90;;;;;;4940559;29;20207;-78
2022/01/09 08:23:06;;;;;;;6.40;0.70;;;4.20;99.90;;;;;;4953088;29;20219;-79
2022/01/09 08:25:32;;;;;;;2.17;0.40;;;2.80;99.90;;;;;;4957137;29;20038;-80
2022/01/09 08:27:58;;;;;;;2.20;0.88;;;2.70;99.90;;;;;;4934008;29;20122;-77
2022/01/09 08:30:24;;;;;;;2.70;1.20;;;2.70;99.90;;;;;;4934655;29;20114;-80
2022/01/09 08:32:54;;;;;;;1.35;0.38;;;2.70;99.90;;;;;;4939535;29;20086;-81
2022/01/09 08:35:21;;;;;;;0.85;0.38;;;2.60;99.90;;;;;;4963342;28;20097;-78
2022/01/09 08:37:47;;;;;;;0.60;0.35;;;2.70;99.90;;;;;;4940669;29;20042;-77
2022/01/09 08:40:19;;;;;;;0.57;0.38;;;2.70;99.90;;;;;;4948762;28;20059;-80
2022/01/09 08:42:46;;;;;;;0.30;0.28;;;2.70;99.90;;;;;;4971283;28;20018;-80
2022/01/09 08:45:11;;;;;;;0.32;0.32;;;2.70;99.90;;;;;;4961086;28;20236;-80
2022/01/09 08:47:38;;;;;;;0.70;0.70;;;2.80;99.90;;;;;;4953568;29;20031;-76
2022/01/09 08:50:06;;;;;;;11.95;0.60;;;2.90;99.90;;;;;;4937427;29;20130;-79
2022/01/09 08:52:32;;;;;;;0.68;0.20;;;2.90;99.90;;;;;;4939546;28;20024;-77
2022/01/09 08:54:58;;;;;;;0.77;0.45;;;3.00;99.90;;;;;;4979618;28;20069;-75
2022/01/09 08:57:25;;;;;;;4.80;0.70;;;3.00;99.90;;;;;;4969042;28;20054;-77
2022/01/09 08:59:51;;;;;;;2.65;0.68;;;3.00;99.90;;;;;;4946163;28;20463;-78
2022/01/09 09:02:17;;;;;;;3.75;0.30;;;2.90;99.90;;;;;;4960950;28;20039;-76
2022/01/09 09:04:43;;;;;;;4.38;0.52;;;3.00;99.90;;;;;;4958133;28;20078;-76
2022/01/09 09:07:09;;;;;;;1.98;0.38;;;3.00;99.90;;;;;;4951363;28;20031;-77
2022/01/09 09:09:36;;;;;;;5.22;1.95;;;3.10;99.90;;;;;;4943838;29;20031;-78
2022/01/09 09:12:02;;;;;;;2.75;0.93;;;3.10;99.90;;;;;;4941930;29;20039;-77
2022/01/09 09:14:28;;;;;;;6.30;0.60;;;3.20;99.90;;;;;;4955691;29;20037;-77
2022/01/09 09:16:54;;;;;;;2.20;1.27;;;3.20;99.90;;;;;;4957472;29;20035;-78
2022/01/09 09:19:19;;;;;;;2.58;0.70;;;3.30;99.90;;;;;;4960823;29;20279;-77
2022/01/09 09:21:46;;;;;;;5.25;1.58;;;3.30;99.90;;;;;;4949766;29;20304;-77
2022/01/09 09:24:13;;;;;;;3.70;0.47;;;3.30;99.90;;;;;;4959769;29;20054;-77
2022/01/09 09:26:39;;;;;;;0.38;0.38;;;3.30;99.90;;;;;;4942887;29;20066;-78
2022/01/09 09:29:07;;;;;;;1.85;0.57;;;5.10;99.90;;;;;;4958224;29;20027;-77
2022/01/09 09:31:33;;;;;;;1.92;0.57;;;3.60;99.90;;;;;;4960383;29;20023;-78
2022/01/09 09:33:59;;;;;;;0.55;0.55;;;3.70;99.90;;;;;;4959659;29;20064;-78
2022/01/09 09:36:26;;;;;;;2.28;0.32;;;3.90;99.90;;;;;;4953712;29;20031;-76
2022/01/09 09:38:52;;;;;;;0.20;0.20;;;3.90;99.90;;;;;;4938527;29;20239;-78
2022/01/09 09:41:22;;;;;;;0.85;0.52;;;4.00;99.90;;;;;;4959649;29;20250;-79
2022/01/09 09:43:48;;;;;;;0.20;0.20;;;4.20;99.90;;;;;;4960490;29;20031;-78
2022/01/09 09:46:15;;;;;;;3.60;0.85;;;4.30;99.90;;;;;;4959579;29;20335;-79
2022/01/09 09:48:41;;;;;;;19.92;7.47;;;4.30;99.90;;;;;;4942423;29;20026;-79
2022/01/09 09:51:07;;;;;;;2.25;0.40;;;4.40;99.90;;;;;;4960419;29;20058;-78
2022/01/09 09:53:32;;;;;;;3.13;1.08;;;4.50;99.90;;;;;;4959687;29;20042;-78
2022/01/09 09:55:58;;;;;;;1.98;0.40;;;4.50;99.90;;;;;;4960476;29;20027;-78
2022/01/09 09:58:24;;;;;;;1.65;0.40;;;4.50;99.90;;;;;;4963645;28;20114;-75
2022/01/09 10:00:55;;;;;;;2.33;0.30;;;4.60;99.90;;;;;;4961119;29;20027;-76
2022/01/09 10:03:28;;;;;;;0.93;0.60;;;4.60;99.90;;;;;;4943777;29;20082;-80
2022/01/09 10:05:54;;;;;;;4.85;1.30;;;4.60;99.90;;;;;;4944080;29;20034;-77
2022/01/09 10:08:20;;;;;;;1.17;0.47;;;4.60;99.90;;;;;;4944555;29;20043;-77
2022/01/09 10:10:45;;;;;;;2.30;0.90;;;4.50;99.90;;;;;;4962052;29;20019;-77
2022/01/09 10:13:15;;;;;;;2.78;1.05;;;4.40;99.90;;;;;;4962709;29;20043;-77
2022/01/09 10:15:59;;;;;;;3.95;1.13;;;4.30;99.90;;;;;;4963247;29;20090;-77
2022/01/09 10:18:43;;;;;;;2.88;0.80;;;4.10;99.90;;;;;;4945784;29;20059;-78
2022/01/09 10:21:23;;;;;;;2.35;0.52;;;4.00;99.90;;;;;;4944824;29;20042;-79
2022/01/09 10:24:01;;;;;;;2.05;0.70;;;3.90;99.90;;;;;;4947408;29;20032;-76
2022/01/09 10:26:29;;;;;;;1.55;0.25;;;3.80;99.90;;;;;;4944254;29;20030;-77
2022/01/09 10:28:55;;;;;;;9.07;0.75;;;3.80;99.90;;;;;;4937686;29;20127;-76
2022/01/09 10:31:20;;;;;;;1.48;0.93;;;3.70;99.90;;;;;;4946447;29;20062;-77
2022/01/09 10:34:16;;;;;;;1.00;0.30;;;3.70;99.90;;;;;;4964127;29;20019;-79
2022/01/09 10:36:45;;;;;;;0.52;0.30;;;3.70;99.90;;;;;;4940931;29;20050;-78
2022/01/09 10:39:16;;;;;;;1.17;0.52;;;3.80;99.90;;;;;;4963141;29;20025;-76
2022/01/09 10:42:00;;;;;;;2.60;0.60;;;3.70;99.90;;;;;;4963253;28;20039;-78
2022/01/09 10:44:33;;;;;;;2.22;0.70;;;3.60;99.90;;;;;;4959853;29;20019;-81
2022/01/09 10:47:00;;;;;;;1.75;0.55;;;3.60;99.90;;;;;;4977515;28;20019;-78
2022/01/09 10:49:41;;;;;;;1.92;0.40;;;3.60;99.90;;;;;;4978410;29;20032;-80
2022/01/09 10:52:29;;;;;;;5.15;0.70;;;3.70;99.90;;;;;;4953382;29;20090;-80
2022/01/09 10:54:58;;;;;;;20.10;5.85;;;3.80;99.90;;;;;;4951128;28;20042;-76
2022/01/09 10:57:31;;;;;;;6.32;1.98;;;3.90;99.90;;;;;;4950549;28;20038;-76
2022/01/09 11:00:23;;;;;;;5.88;1.60;;;4.00;99.90;;;;;;4953380;29;20035;-79
2022/01/09 11:02:49;;;;;;;3.63;0.90;;;4.10;99.90;;;;;;4955500;28;20062;-77
2022/01/09 11:05:15;;;;;;;1.33;1.10;;;4.10;99.90;;;;;;4954879;29;20023;-80
2022/01/09 11:07:41;;;;;;;2.95;0.50;;;4.20;99.90;;;;;;4940652;29;20039;-76
2022/01/09 11:10:08;;;;;;;1.02;0.52;;;4.20;99.90;;;;;;4951810;29;20506;-77
2022/01/09 11:12:45;;;;;;;3.20;0.68;;;4.20;99.90;;;;;;4926871;29;20352;-77
2022/01/09 11:15:14;;;;;;;5.25;1.10;;;4.20;99.90;;;;;;4921341;28;20031;-76
2022/01/09 11:17:42;;;;;;;3.53;2.20;;;4.30;99.90;;;;;;4961540;28;20134;-77
2022/01/09 11:20:08;;;;;;;10.90;0.77;;;4.40;99.90;;;;;;4968656;28;20050;-77
2022/01/09 11:22:34;;;;;;;2.47;0.55;;;4.50;99.90;;;;;;4948143;28;20077;-77
2022/01/09 11:25:20;;;;;;;2.55;1.10;;;4.60;99.90;;;;;;4959923;28;20031;-78
2022/01/09 11:27:52;;;;;;;0.70;0.65;;;4.70;99.90;;;;;;4962374;28;20035;-77
2022/01/09 11:30:19;;;;;;;0.63;0.40;;;4.70;99.90;;;;;;4960710;29;20027;-78
2022/01/09 11:33:13;;;;;;;1.83;1.17;;;4.80;99.90;;;;;;4958447;29;20077;-78
2022/01/09 11:35:54;;;;;;;3.28;0.95;;;4.90;99.90;;;;;;4940403;29;20032;-77
2022/01/09 11:38:31;;;;;;;5.63;1.20;;;5.00;99.90;;;;;;4934781;29;20142;-77
2022/01/09 11:41:19;;;;;;;1.23;0.38;;;5.00;99.90;;;;;;4952641;28;20055;-77
2022/01/09 11:44:01;;;;;;;3.58;0.60;;;5.00;99.90;;;;;;4959840;29;20098;-77
2022/01/09 11:46:29;;;;;;;4.90;0.80;;;5.10;99.90;;;;;;4958765;28;20550;-76
2022/01/09 11:48:55;;;;;;;3.30;0.95;;;5.10;99.90;;;;;;4948226;29;20472;-77
2022/01/09 11:51:23;;;;;;;3.47;0.60;;;5.20;99.90;;;;;;4949367;29;20035;-77
2022/01/09 11:54:08;;;;;;;3.40;1.63;;;5.30;99.90;;;;;;4951505;29;20106;-76
2022/01/09 11:56:53;;;;;;;1.17;0.60;;;5.40;99.90;;;;;;4935464;29;20400;-76
2022/01/09 11:59:24;;;;;;;3.40;0.85;;;5.40;99.90;;;;;;4950980;29;20031;-76
2022/01/09 12:01:53;;;;;;;3.08;0.82;;;5.30;99.90;;;;;;4952493;28;20093;-76
2022/01/09 12:04:30;;;;;;;2.47;1.23;;;5.20;99.90;;;;;;4972487;28;20061;-76
2022/01/09 12:06:57;;;;;;;1.95;0.45;;;5.30;99.90;;;;;;4962514;28;20286;-76
2022/01/09 12:09:36;;;;;;;6.40;0.93;;;5.20;99.90;;;;;;4943847;29;20035;-77
2022/01/09 12:12:16;;;;;;;6.35;0.65;;;5.10;99.90;;;;;;4961801;29;20247;-76
2022/01/09 12:14:42;;;;;;;10.10;3.40;;;4.90;99.90;;;;;;4944210;29;20026;-76
2022/01/09 12:17:34;;;;;;;2.22;0.73;;;4.90;99.90;;;;;;4960643;29;20059;-76
2022/01/09 12:20:12;;;;;;;3.22;0.93;;;4.90;99.90;;;;;;4934092;29;20043;-76
2022/01/09 12:22:42;;;;;;;0.98;0.60;;;4.80;99.90;;;;;;4961318;29;20039;-76
2022/01/09 12:25:21;;;;;;;1.70;0.70;;;4.90;99.90;;;;;;4943073;29;20053;-76
2022/01/09 12:27:51;;;;;;;0.53;0.53;;;5.10;99.90;;;;;;4943945;28;20028;-76
2022/01/09 12:30:41;;;;;;;1.95;0.47;;;5.20;99.90;;;;;;4961293;29;20305;-76
2022/01/09 12:33:25;;;;;;;2.67;0.60;;;5.20;99.90;;;;;;4953160;29;20266;-76
2022/01/09 12:35:59;;;;;;;4.78;1.45;;;5.40;99.90;;;;;;4951522;28;20419;-76
2022/01/09 12:38:27;;;;;;;0.90;0.40;;;5.70;99.90;;;;;;4935946;28;20023;-77
2022/01/09 12:40:57;;;;;;;6.20;0.93;;;5.30;99.90;;;;;;4955673;28;20101;-77
2022/01/09 12:43:25;;;;;;;1.65;0.55;;;5.30;99.90;;;;;;4937313;28;20035;-77
2022/01/09 12:45:52;;;;;;;1.00;0.30;;;5.40;99.90;;;;;;4957178;28;20230;-75
2022/01/09 12:48:29;;;;;;;2.00;1.17;;;5.30;99.90;;;;;;4943407;28;20026;-75
2022/01/09 12:50:56;;;;;;;5.88;1.42;;;5.40;99.90;;;;;;4962293;28;20027;-76
2022/01/09 12:53:29;;;;;;;2.28;1.30;;;5.50;99.90;;;;;;4946203;29;20027;-75
2022/01/09 12:56:03;;;;;;;4.50;0.70;;;5.50;99.90;;;;;;4939058;29;20027;-75
2022/01/09 12:58:36;;;;;;;2.92;0.50;;;5.30;99.90;;;;;;4956786;28;20031;-76
2022/01/09 13:01:16;;;;;;;1.27;0.55;;;5.00;99.90;;;;;;4954928;28;20039;-75